Time,TemperatureF,DewpointF,PressureIn,WindDirection,WindDirectionDegrees,WindSpeedMPH,WindSpeedGustMPH,Humidity,HourlyPrecipIn,Conditions,Clouds,dailyrainin,SolarRadiationWatts/m^2,SoftwareType,DateUTC
2013-02-07 00:05:00,25.3,-1.2,30.30,North,0,0.0,11.0,31,0.00,,,0.00,0000,Weather View 32 v70,2013-02-07 05:05:00,
2013-02-07 00:10:00,24.8,0.4,30.30,NW,315,1.0,11.0,34,0.00,,,0.00,0008,Weather View 32 v70,2013-02-07 05:10:00,
2013-02-07 00:15:00,24.7,0.9,30.30,North,0,0.0,8.0,35,0.00,,,0.00,0000,Weather View 32 v70,2013-02-07 05:15:00,
2013-02-07 00:20:00,24.6,0.8,30.30,NNE,23,0.0,8.0,35,0.00,,,0.00,0000,Weather View 32 v70,2013-02-07 05:20:00,
2013-02-07 00:30:00,24.3,-1.4,30.28,NNW,338,2.0,8.0,32,0.00,,,0.00,0000,Weather View 32 v70,2013-02-07 05:30:00,
2013-02-07 00:40:00,24.3,-0.7,30.30,North,0,0.0,8.0,33,0.00,,,0.00,0008,Weather View 32 v70,2013-02-07 05:40:00,
2013-02-07 00:45:00,24.0,0.3,30.30,WNW,293,0.0,8.0,35,0.00,,,0.00,0000,Weather View 32 v70,2013-02-07 05:45:00,
2013-02-07 00:50:00,23.7,1.2,30.30,NNW,338,0.0,8.0,37,0.00,,,0.00,0000,Weather View 32 v70,2013-02-07 05:50:00,
2013-02-07 00:55:00,23.6,1.1,30.31,North,0,0.0,8.0,37,0.00,,,0.00,0000,Weather View 32 v70,2013-02-07 05:55:00,
2013-02-07 01:00:00,23.5,2.1,30.31,NNW,338,0.0,8.0,39,0.00,,,0.00,0000,Weather View 32 v70,2013-02-07 06:00:00,
2013-02-07 01:05:00,23.3,2.5,30.31,NNW,338,0.0,8.0,40,0.00,,,0.00,0000,Weather View 32 v70,2013-02-07 06:05:00,
2013-02-07 01:15:00,22.9,2.2,30.31,NNW,338,0.0,8.0,40,0.00,,,0.00,0008,Weather View 32 v70,2013-02-07 06:15:00,
2013-02-07 01:20:00,22.6,2.4,30.31,NW,315,0.0,8.0,41,0.00,,,0.00,0000,Weather View 32 v70,2013-02-07 06:20:00,
2013-02-07 01:30:00,22.8,2.1,30.31,North,0,0.0,6.0,40,0.00,,,0.00,0000,Weather View 32 v70,2013-02-07 06:30:00,
2013-02-07 01:40:00,22.2,1.6,30.32,NW,315,0.0,5.0,40,0.00,,,0.00,0000,Weather View 32 v70,2013-02-07 06:40:00,
2013-02-07 01:45:00,22.2,1.6,30.32,NW,315,0.0,5.0,40,0.00,,,0.00,0000,Weather View 32 v70,2013-02-07 06:45:00,
2013-02-07 01:50:00,22.0,1.9,30.33,WNW,293,0.0,5.0,41,0.00,,,0.00,0008,Weather View 32 v70,2013-02-07 06:50:00,
2013-02-07 02:00:00,21.5,2.4,30.34,NW,315,0.0,5.0,43,0.00,,,0.00,0000,Weather View 32 v70,2013-02-07 07:00:00,
2013-02-07 02:05:00,21.2,3.2,30.34,NW,315,0.0,5.0,45,0.00,,,0.00,0000,Weather View 32 v70,2013-02-07 07:05:00,
2013-02-07 02:15:00,20.9,3.8,30.34,NW,315,0.0,5.0,47,0.00,,,0.00,0000,Weather View 32 v70,2013-02-07 07:15:00,
2013-02-07 02:20:00,20.9,2.9,30.34,NNW,338,0.0,5.0,45,0.00,,,0.00,0000,Weather View 32 v70,2013-02-07 07:20:00,
2013-02-07 02:25:00,20.9,2.9,30.35,NNW,338,0.0,4.0,45,0.00,,,0.00,0008,Weather View 32 v70,2013-02-07 07:25:00,
2013-02-07 02:35:00,20.4,3.9,30.35,NNW,338,0.0,2.0,48,0.00,,,0.00,0008,Weather View 32 v70,2013-02-07 07:35:00,
2013-02-07 02:40:00,20.2,5.0,30.35,NNW,338,0.0,2.0,51,0.00,,,0.00,0000,Weather View 32 v70,2013-02-07 07:40:00,
2013-02-07 02:50:00,20.0,3.0,30.35,NNW,338,0.0,2.0,47,0.00,,,0.00,0000,Weather View 32 v70,2013-02-07 07:50:00,
2013-02-07 02:55:00,19.9,3.8,30.35,NNW,338,0.0,2.0,49,0.00,,,0.00,0008,Weather View 32 v70,2013-02-07 07:55:00,
2013-02-07 03:00:00,19.8,4.1,30.35,NNW,338,0.0,2.0,50,0.00,,,0.00,0000,Weather View 32 v70,2013-02-07 08:00:00,
2013-02-07 03:05:00,19.8,4.1,30.36,WNW,293,0.0,2.0,50,0.00,,,0.00,0008,Weather View 32 v70,2013-02-07 08:05:00,
2013-02-07 03:15:00,19.5,4.8,30.36,NNE,23,2.0,2.0,52,0.00,,,0.00,0000,Weather View 32 v70,2013-02-07 08:15:00,
2013-02-07 03:20:00,19.5,4.3,30.36,NNW,338,0.0,2.0,51,0.00,,,0.00,0000,Weather View 32 v70,2013-02-07 08:20:00,
2013-02-07 03:30:00,19.3,4.6,30.36,NW,315,0.0,2.0,52,0.00,,,0.00,0000,Weather View 32 v70,2013-02-07 08:30:00,
2013-02-07 03:40:00,19.1,4.8,30.36,NNW,338,0.0,2.0,53,0.00,,,0.00,0000,Weather View 32 v70,2013-02-07 08:40:00,
2013-02-07 03:50:00,18.8,4.9,30.36,NNW,338,0.0,2.0,54,0.00,,,0.00,0000,Weather View 32 v70,2013-02-07 08:50:00,
2013-02-07 04:00:00,18.4,3.7,30.36,North,0,0.0,2.0,52,0.00,,,0.00,0000,Weather View 32 v70,2013-02-07 09:00:00,
2013-02-07 04:05:00,18.4,3.7,30.36,NNW,338,0.0,2.0,52,0.00,,,0.00,0000,Weather View 32 v70,2013-02-07 09:05:00,
2013-02-07 04:10:00,18.4,3.7,30.37,NNW,338,0.0,2.0,52,0.00,,,0.00,0000,Weather View 32 v70,2013-02-07 09:10:00,
2013-02-07 04:15:00,18.5,4.6,30.37,NW,315,0.0,2.0,54,0.00,,,0.00,0000,Weather View 32 v70,2013-02-07 09:15:00,
2013-02-07 04:20:00,18.5,4.2,30.37,NW,315,0.0,2.0,53,0.00,,,0.00,0008,Weather View 32 v70,2013-02-07 09:20:00,
2013-02-07 04:25:00,18.5,5.4,30.37,NW,315,0.0,2.0,56,0.00,,,0.00,0008,Weather View 32 v70,2013-02-07 09:25:00,
2013-02-07 04:30:00,18.3,4.8,30.37,West,270,0.0,2.0,55,0.00,,,0.00,0000,Weather View 32 v70,2013-02-07 09:30:00,
2013-02-07 04:35:00,18.1,4.6,30.38,West,270,0.0,2.0,55,0.00,,,0.00,0000,Weather View 32 v70,2013-02-07 09:35:00,
2013-02-07 04:40:00,18.1,4.6,30.38,West,270,0.0,2.0,55,0.00,,,0.00,0000,Weather View 32 v70,2013-02-07 09:40:00,
2013-02-07 04:45:00,17.9,4.8,30.39,NNW,338,0.0,2.0,56,0.00,,,0.00,0008,Weather View 32 v70,2013-02-07 09:45:00,
2013-02-07 04:55:00,17.5,5.3,30.38,NNW,338,0.0,2.0,58,0.00,,,0.00,0000,Weather View 32 v70,2013-02-07 09:55:00,
2013-02-07 05:00:00,17.3,4.7,30.38,NNW,338,0.0,2.0,57,0.00,,,0.00,0000,Weather View 32 v70,2013-02-07 10:00:00,
2013-02-07 05:05:00,17.2,3.4,30.38,NNW,338,0.0,0.0,54,0.00,,,0.00,0000,Weather View 32 v70,2013-02-07 10:05:00,
2013-02-07 05:15:00,17.0,4.3,30.38,NNW,338,0.0,0.0,57,0.00,,,0.00,0000,Weather View 32 v70,2013-02-07 10:15:00,
2013-02-07 05:20:00,17.0,3.6,30.39,NW,315,0.0,0.0,55,0.00,,,0.00,0000,Weather View 32 v70,2013-02-07 10:20:00,
2013-02-07 05:25:00,16.8,4.2,30.39,NNW,338,0.0,0.0,57,0.00,,,0.00,0000,Weather View 32 v70,2013-02-07 10:25:00,
2013-02-07 05:30:00,16.7,4.1,30.40,NNW,338,0.0,0.0,57,0.00,,,0.00,0008,Weather View 32 v70,2013-02-07 10:30:00,
2013-02-07 05:40:00,16.6,4.8,30.41,NNW,338,0.0,0.0,59,0.00,,,0.00,0000,Weather View 32 v70,2013-02-07 10:40:00,
2013-02-07 05:45:00,16.6,5.2,30.41,NNW,338,0.0,0.0,60,0.00,,,0.00,0000,Weather View 32 v70,2013-02-07 10:45:00,
2013-02-07 05:55:00,16.5,4.7,30.41,NNW,338,0.0,0.0,59,0.00,,,0.00,0000,Weather View 32 v70,2013-02-07 10:55:00,
2013-02-07 06:00:00,16.6,5.2,30.41,NNW,338,0.0,0.0,60,0.00,,,0.00,0000,Weather View 32 v70,2013-02-07 11:00:00,
2013-02-07 06:05:00,16.6,5.2,30.41,NNW,338,0.0,0.0,60,0.00,,,0.00,0000,Weather View 32 v70,2013-02-07 11:05:00,
2013-02-07 06:10:00,16.5,5.4,30.41,NNW,338,0.0,0.0,61,0.00,,,0.00,0008,Weather View 32 v70,2013-02-07 11:10:00,
2013-02-07 06:15:00,16.4,4.9,30.42,NNW,338,0.0,0.0,60,0.00,,,0.00,0000,Weather View 32 v70,2013-02-07 11:15:00,
2013-02-07 06:20:00,16.4,5.3,30.41,NNW,338,0.0,0.0,61,0.00,,,0.00,0000,Weather View 32 v70,2013-02-07 11:20:00,
2013-02-07 06:25:00,16.4,6.0,30.41,NNW,338,0.0,0.0,63,0.00,,,0.00,0000,Weather View 32 v70,2013-02-07 11:25:00,
2013-02-07 06:30:00,16.4,5.3,30.41,NNW,338,0.0,0.0,61,0.00,,,0.00,0000,Weather View 32 v70,2013-02-07 11:30:00,
2013-02-07 06:35:00,16.4,5.3,30.42,NNW,338,0.0,0.0,61,0.00,,,0.00,0008,Weather View 32 v70,2013-02-07 11:35:00,
2013-02-07 06:40:00,16.3,5.2,30.42,NW,315,0.0,0.0,61,0.00,,,0.00,0000,Weather View 32 v70,2013-02-07 11:40:00,
2013-02-07 06:45:00,16.3,5.5,30.42,NNW,338,0.0,0.0,62,0.00,,,0.00,0000,Weather View 32 v70,2013-02-07 11:45:00,
2013-02-07 06:50:00,16.4,6.0,30.42,NW,315,0.0,0.0,63,0.00,,,0.00,0000,Weather View 32 v70,2013-02-07 11:50:00,
2013-02-07 06:55:00,16.4,6.0,30.43,NW,315,0.0,0.0,63,0.00,,,0.00,0000,Weather View 32 v70,2013-02-07 11:55:00,
2013-02-07 07:05:00,16.5,6.1,30.44,NW,315,0.0,0.0,63,0.00,,,0.00,0008,Weather View 32 v70,2013-02-07 12:05:00,
2013-02-07 07:15:00,16.6,6.2,30.45,NW,315,0.0,1.0,63,0.00,,,0.00,0008,Weather View 32 v70,2013-02-07 12:15:00,
2013-02-07 07:25:00,16.8,7.1,30.45,NNW,338,0.0,1.0,65,0.00,,,0.00,0008,Weather View 32 v70,2013-02-07 12:25:00,
2013-02-07 07:35:00,17.5,6.7,30.45,NNW,338,0.0,1.0,62,0.00,,,0.00,0024,Weather View 32 v70,2013-02-07 12:35:00,
2013-02-07 07:45:00,18.1,6.2,30.46,NW,315,0.0,1.0,59,0.00,,,0.00,0048,Weather View 32 v70,2013-02-07 12:45:00,
2013-02-07 07:55:00,18.6,6.7,30.46,NNW,338,0.0,1.0,59,0.00,,,0.00,0056,Weather View 32 v70,2013-02-07 12:55:00,
2013-02-07 08:00:00,18.9,6.5,30.46,NNW,338,0.0,1.0,58,0.00,,,0.00,0040,Weather View 32 v70,2013-02-07 13:00:00,
2013-02-07 08:05:00,19.2,7.2,30.46,NNW,338,0.0,4.0,59,0.00,,,0.00,0064,Weather View 32 v70,2013-02-07 13:05:00,
2013-02-07 08:15:00,19.5,7.9,30.46,NNW,338,0.0,4.0,60,0.00,,,0.00,0080,Weather View 32 v70,2013-02-07 13:15:00,
2013-02-07 08:20:00,19.7,7.3,30.46,NNW,338,0.0,5.0,58,0.00,,,0.00,0088,Weather View 32 v70,2013-02-07 13:20:00,
2013-02-07 08:25:00,20.0,7.2,30.47,WNW,293,2.0,7.0,57,0.00,,,0.00,0096,Weather View 32 v70,2013-02-07 13:25:00,
2013-02-07 08:30:00,20.3,7.1,30.47,NNW,338,0.0,7.0,56,0.00,,,0.00,0104,Weather View 32 v70,2013-02-07 13:30:00,
2013-02-07 08:40:00,21.0,6.5,30.47,North,0,0.0,7.0,53,0.00,,,0.00,0120,Weather View 32 v70,2013-02-07 13:40:00,
2013-02-07 08:47:00,21.3,6.9,30.47,North,0,0.0,7.0,53,0.00,,,0.00,0120,Weather View 32 v70,2013-02-07 13:47:00,
2013-02-07 08:55:00,22.1,6.3,30.48,North,0,3.0,7.0,50,0.00,,,0.00,0136,Weather View 32 v70,2013-02-07 13:55:00,
2013-02-07 09:00:00,22.5,6.6,30.48,North,0,0.0,7.0,50,0.00,,,0.00,0152,Weather View 32 v70,2013-02-07 14:00:00,
2013-02-07 09:10:00,23.3,6.5,30.48,North,0,0.0,7.0,48,0.00,,,0.00,0184,Weather View 32 v70,2013-02-07 14:10:00,
2013-02-07 09:15:00,23.6,6.3,30.48,NW,315,0.0,7.0,47,0.00,,,0.00,0200,Weather View 32 v70,2013-02-07 14:15:00,
2013-02-07 09:20:00,23.9,5.2,30.48,North,0,2.0,7.0,44,0.00,,,0.00,0176,Weather View 32 v70,2013-02-07 14:20:00,
2013-02-07 09:30:00,24.5,5.2,30.48,NW,315,0.0,6.0,43,0.00,,,0.00,0184,Weather View 32 v70,2013-02-07 14:30:00,
2013-02-07 09:35:00,24.8,5.5,30.48,NNW,338,0.0,6.0,43,0.00,,,0.00,0152,Weather View 32 v70,2013-02-07 14:35:00,
2013-02-07 09:40:00,24.9,4.6,30.48,North,0,1.0,6.0,41,0.00,,,0.00,0176,Weather View 32 v70,2013-02-07 14:40:00,
2013-02-07 09:48:00,25.2,5.8,30.48,NNW,338,0.0,6.0,43,0.00,,,0.00,0160,Weather View 32 v70,2013-02-07 14:48:00,
2013-02-07 09:55:00,25.5,5.1,30.49,North,0,0.0,6.0,41,0.00,,,0.00,0168,Weather View 32 v70,2013-02-07 14:55:00,
2013-02-07 10:00:00,26.0,5.5,30.49,NW,315,0.0,6.0,41,0.00,,,0.00,0168,Weather View 32 v70,2013-02-07 15:00:00,
2013-02-07 10:10:00,26.2,5.1,30.50,NNW,338,0.0,5.0,40,0.00,,,0.00,0200,Weather View 32 v70,2013-02-07 15:10:00,
2013-02-07 10:15:00,26.5,6.0,30.50,NW,315,0.0,5.0,41,0.00,,,0.00,0216,Weather View 32 v70,2013-02-07 15:15:00,
2013-02-07 10:20:00,26.7,5.1,30.50,North,0,0.0,5.0,39,0.00,,,0.00,0200,Weather View 32 v70,2013-02-07 15:20:00,
2013-02-07 10:30:00,27.1,5.4,30.49,North,0,0.0,5.0,39,0.00,,,0.00,0216,Weather View 32 v70,2013-02-07 15:30:00,
2013-02-07 10:40:00,27.2,3.1,30.49,NNW,338,1.0,7.0,35,0.00,,,0.00,0192,Weather View 32 v70,2013-02-07 15:40:00,
2013-02-07 10:45:00,27.3,5.0,30.49,North,0,0.0,7.0,38,0.00,,,0.00,0192,Weather View 32 v70,2013-02-07 15:45:00,
2013-02-07 10:50:00,27.5,4.0,30.49,NNW,338,0.0,7.0,36,0.00,,,0.00,0208,Weather View 32 v70,2013-02-07 15:50:00,
2013-02-07 10:55:00,27.4,3.3,30.49,NNW,338,4.0,8.0,35,0.00,,,0.00,0216,Weather View 32 v70,2013-02-07 15:55:00,
2013-02-07 11:05:00,27.6,4.2,30.49,North,0,0.0,8.0,36,0.00,,,0.00,0312,Weather View 32 v70,2013-02-07 16:05:00,
2013-02-07 11:10:00,27.8,3.0,30.49,NNE,23,2.0,8.0,34,0.00,,,0.00,0272,Weather View 32 v70,2013-02-07 16:10:00,
2013-02-07 11:15:00,28.2,4.7,30.49,NNE,23,3.0,9.0,36,0.00,,,0.00,0312,Weather View 32 v70,2013-02-07 16:15:00,
2013-02-07 11:25:00,28.4,2.3,30.49,NW,315,0.0,9.0,32,0.00,,,0.00,0304,Weather View 32 v70,2013-02-07 16:25:00,
2013-02-07 11:35:00,29.2,4.3,30.48,North,0,0.0,9.0,34,0.00,,,0.00,0344,Weather View 32 v70,2013-02-07 16:35:00,
2013-02-07 11:40:00,29.6,3.3,30.48,NNW,338,2.0,9.0,32,0.00,,,0.00,0328,Weather View 32 v70,2013-02-07 16:40:00,
2013-02-07 11:45:00,29.7,3.4,30.48,NNW,338,0.0,9.0,32,0.00,,,0.00,0384,Weather View 32 v70,2013-02-07 16:45:00,
2013-02-07 11:55:00,30.0,3.0,30.48,NNE,23,0.0,9.0,31,0.00,,,0.00,0312,Weather View 32 v70,2013-02-07 16:55:00,
2013-02-07 12:00:00,29.6,3.3,30.48,NNE,23,0.0,9.0,32,0.00,,,0.00,0304,Weather View 32 v70,2013-02-07 17:00:00,
2013-02-07 12:05:00,29.8,3.5,30.48,NNW,338,1.0,9.0,32,0.00,,,0.00,0320,Weather View 32 v70,2013-02-07 17:05:00,
2013-02-07 12:15:00,29.9,2.9,30.47,ENE,68,0.0,10.0,31,0.00,,,0.00,0368,Weather View 32 v70,2013-02-07 17:15:00,
2013-02-07 12:20:00,30.3,3.3,30.47,NE,45,0.0,10.0,31,0.00,,,0.00,0336,Weather View 32 v70,2013-02-07 17:20:00,
2013-02-07 12:30:00,30.1,3.8,30.46,NW,315,0.0,10.0,32,0.00,,,0.00,0352,Weather View 32 v70,2013-02-07 17:30:00,
2013-02-07 12:40:00,31.1,4.7,30.46,NE,45,0.0,10.0,32,0.00,,,0.00,0368,Weather View 32 v70,2013-02-07 17:40:00,
2013-02-07 12:45:00,31.2,4.1,30.46,NNE,23,0.0,10.0,31,0.00,,,0.00,0376,Weather View 32 v70,2013-02-07 17:45:00,
2013-02-07 12:50:00,31.5,5.0,30.46,NNW,338,0.0,10.0,32,0.00,,,0.00,0312,Weather View 32 v70,2013-02-07 17:50:00,
2013-02-07 12:55:00,31.5,4.3,30.46,NNE,23,0.0,10.0,31,0.00,,,0.00,0312,Weather View 32 v70,2013-02-07 17:55:00,
2013-02-07 13:00:00,31.7,4.5,30.46,East,90,6.0,10.0,31,0.00,,,0.00,0304,Weather View 32 v70,2013-02-07 18:00:00,
2013-02-07 13:10:00,31.1,4.0,30.45,WNW,293,0.0,10.0,31,0.00,,,0.00,0312,Weather View 32 v70,2013-02-07 18:10:00,
2013-02-07 13:15:00,31.4,4.9,30.45,NNW,338,0.0,10.0,32,0.00,,,0.00,0296,Weather View 32 v70,2013-02-07 18:15:00,
2013-02-07 13:20:00,31.7,3.8,30.45,NNE,23,0.0,10.0,30,0.00,,,0.00,0264,Weather View 32 v70,2013-02-07 18:20:00,
2013-02-07 13:30:00,31.6,3.7,30.45,NE,45,0.0,10.0,30,0.00,,,0.00,0272,Weather View 32 v70,2013-02-07 18:30:00,
2013-02-07 13:40:00,31.4,3.5,30.45,ESE,113,0.0,10.0,30,0.00,,,0.00,0232,Weather View 32 v70,2013-02-07 18:40:00,
2013-02-07 13:45:00,31.4,3.5,30.45,ENE,68,0.0,10.0,30,0.00,,,0.00,0232,Weather View 32 v70,2013-02-07 18:45:00,
2013-02-07 13:50:00,31.5,3.6,30.44,East,90,0.0,10.0,30,0.00,,,0.00,0336,Weather View 32 v70,2013-02-07 18:50:00,
2013-02-07 14:00:00,31.8,3.9,30.44,SW,225,0.0,10.0,30,0.00,,,0.00,0224,Weather View 32 v70,2013-02-07 19:00:00,
2013-02-07 14:10:00,32.4,3.6,30.44,West,270,0.0,6.0,29,0.00,,,0.00,0344,Weather View 32 v70,2013-02-07 19:10:00,
2013-02-07 14:20:00,32.7,3.2,30.44,NNW,338,0.0,6.0,28,0.00,,,0.00,0320,Weather View 32 v70,2013-02-07 19:20:00,
2013-02-07 14:30:00,32.3,2.8,30.44,ESE,113,0.0,8.0,28,0.00,,,0.00,0312,Weather View 32 v70,2013-02-07 19:30:00,
2013-02-07 14:35:00,32.5,3.7,30.44,ENE,68,0.0,8.0,29,0.00,,,0.00,0264,Weather View 32 v70,2013-02-07 19:35:00,
2013-02-07 14:40:00,32.5,3.7,30.44,North,0,0.0,8.0,29,0.00,,,0.00,0256,Weather View 32 v70,2013-02-07 19:40:00,
2013-02-07 14:45:00,32.3,3.5,30.44,North,0,0.0,8.0,29,0.00,,,0.00,0264,Weather View 32 v70,2013-02-07 19:45:00,
2013-02-07 14:50:00,32.4,3.6,30.44,East,90,0.0,8.0,29,0.00,,,0.00,0224,Weather View 32 v70,2013-02-07 19:50:00,
2013-02-07 15:00:00,32.5,4.5,30.44,East,90,0.0,8.0,30,0.00,,,0.00,0208,Weather View 32 v70,2013-02-07 20:00:00,
2013-02-07 15:05:00,32.5,4.5,30.43,NE,45,0.0,8.0,30,0.00,,,0.00,0200,Weather View 32 v70,2013-02-07 20:05:00,
2013-02-07 15:10:00,32.0,4.8,30.44,NNW,338,1.0,8.0,31,0.00,,,0.00,0200,Weather View 32 v70,2013-02-07 20:10:00,
2013-02-07 15:20:00,31.7,7.8,30.44,WSW,248,0.0,8.0,36,0.00,,,0.00,0160,Weather View 32 v70,2013-02-07 20:20:00,
2013-02-07 15:25:00,31.5,6.3,30.44,WSW,248,0.0,8.0,34,0.00,,,0.00,0136,Weather View 32 v70,2013-02-07 20:25:00,
2013-02-07 15:30:00,31.2,6.1,30.44,SSW,203,0.0,6.0,34,0.00,,,0.00,0096,Weather View 32 v70,2013-02-07 20:30:00,
2013-02-07 15:40:00,30.9,6.4,30.44,WSW,248,0.0,6.0,35,0.00,,,0.00,0064,Weather View 32 v70,2013-02-07 20:40:00,
2013-02-07 15:45:00,30.9,5.8,30.44,SW,225,0.0,6.0,34,0.00,,,0.00,0104,Weather View 32 v70,2013-02-07 20:45:00,
2013-02-07 15:50:00,30.9,5.8,30.44,East,90,0.0,8.0,34,0.00,,,0.00,0064,Weather View 32 v70,2013-02-07 20:50:00,
2013-02-07 15:55:00,30.9,5.8,30.44,North,0,0.0,8.0,34,0.00,,,0.00,0096,Weather View 32 v70,2013-02-07 20:55:00,
2013-02-07 16:05:00,30.9,5.2,30.44,NNW,338,0.0,8.0,33,0.00,,,0.00,0056,Weather View 32 v70,2013-02-07 21:05:00,
2013-02-07 16:15:00,30.6,5.5,30.45,NW,315,0.0,8.0,34,0.00,,,0.00,0048,Weather View 32 v70,2013-02-07 21:15:00,
2013-02-07 16:20:00,30.3,5.3,30.44,NE,45,0.0,8.0,34,0.00,,,0.00,0032,Weather View 32 v70,2013-02-07 21:20:00,
2013-02-07 16:30:00,29.8,4.8,30.44,East,90,0.0,8.0,34,0.00,,,0.00,0016,Weather View 32 v70,2013-02-07 21:30:00,
2013-02-07 16:40:00,29.1,4.2,30.44,ESE,113,3.0,9.0,34,0.00,,,0.00,0008,Weather View 32 v70,2013-02-07 21:40:00,
2013-02-07 16:50:00,28.8,5.8,30.44,ENE,68,0.0,9.0,37,0.00,,,0.00,0016,Weather View 32 v70,2013-02-07 21:50:00,
2013-02-07 17:00:00,28.5,4.3,30.45,North,0,0.0,9.0,35,0.00,,,0.00,0000,Weather View 32 v70,2013-02-07 22:00:00,
2013-02-07 17:05:00,28.5,5.0,30.45,NE,45,0.0,9.0,36,0.00,,,0.00,0000,Weather View 32 v70,2013-02-07 22:05:00,
2013-02-07 17:15:00,28.5,6.1,30.45,ENE,68,0.0,9.0,38,0.00,,,0.00,0000,Weather View 32 v70,2013-02-07 22:15:00,
2013-02-07 17:20:00,28.5,6.1,30.45,NE,45,0.0,9.0,38,0.00,,,0.00,0000,Weather View 32 v70,2013-02-07 22:20:00,
2013-02-07 17:25:00,28.4,4.8,30.45,NE,45,0.0,9.0,36,0.00,,,0.00,0000,Weather View 32 v70,2013-02-07 22:25:00,
2013-02-07 17:30:00,28.4,6.6,30.45,NNE,23,0.0,9.0,39,0.00,,,0.00,0008,Weather View 32 v70,2013-02-07 22:30:00,
2013-02-07 17:40:00,28.3,5.9,30.45,NNE,23,0.0,7.0,38,0.00,,,0.00,0016,Weather View 32 v70,2013-02-07 22:40:00,
2013-02-07 17:45:00,28.3,7.1,30.45,East,90,1.0,4.0,40,0.00,,,0.00,0000,Weather View 32 v70,2013-02-07 22:45:00,
2013-02-07 17:50:00,28.3,6.5,30.45,ENE,68,0.0,4.0,39,0.00,,,0.00,0000,Weather View 32 v70,2013-02-07 22:50:00,
2013-02-07 18:00:00,28.2,8.6,30.45,NE,45,0.0,4.0,43,0.00,,,0.00,0000,Weather View 32 v70,2013-02-07 23:00:00,
2013-02-07 18:10:00,28.2,7.5,30.45,NE,45,0.0,4.0,41,0.00,,,0.00,0000,Weather View 32 v70,2013-02-07 23:10:00,
2013-02-07 18:15:00,28.2,7.5,30.45,NE,45,0.0,4.0,41,0.00,,,0.00,0008,Weather View 32 v70,2013-02-07 23:15:00,
2013-02-07 18:20:00,28.2,8.0,30.46,NNE,23,0.0,4.0,42,0.00,,,0.00,0000,Weather View 32 v70,2013-02-07 23:20:00,
2013-02-07 18:25:00,28.2,7.5,30.46,NE,45,0.0,4.0,41,0.00,,,0.00,0000,Weather View 32 v70,2013-02-07 23:25:00,
2013-02-07 18:30:00,28.2,8.6,30.46,ENE,68,0.0,4.0,43,0.00,,,0.00,0000,Weather View 32 v70,2013-02-07 23:30:00,
2013-02-07 18:40:00,28.3,9.2,30.46,ESE,113,0.0,4.0,44,0.00,,,0.00,0000,Weather View 32 v70,2013-02-07 23:40:00,
2013-02-07 18:45:00,28.3,8.7,30.47,NE,45,0.0,3.0,43,0.00,,,0.00,0000,Weather View 32 v70,2013-02-07 23:45:00,
2013-02-07 18:50:00,28.3,8.7,30.46,ENE,68,0.0,4.0,43,0.00,,,0.00,0000,Weather View 32 v70,2013-02-07 23:50:00,
2013-02-07 18:55:00,28.3,8.1,30.46,ENE,68,0.0,4.0,42,0.00,,,0.00,0000,Weather View 32 v70,2013-02-07 23:55:00,
2013-02-07 19:00:00,28.3,9.2,30.46,ENE,68,0.0,4.0,44,0.00,,,0.00,0000,Weather View 32 v70,2013-02-08 00:00:00,
2013-02-07 19:05:00,28.3,8.7,30.46,ESE,113,0.0,4.0,43,0.00,,,0.00,0000,Weather View 32 v70,2013-02-08 00:05:00,
2013-02-07 19:15:00,28.3,9.7,30.46,NNE,23,0.0,4.0,45,0.00,,,0.00,0000,Weather View 32 v70,2013-02-08 00:15:00,
2013-02-07 19:20:00,28.3,9.7,30.46,ENE,68,0.0,4.0,45,0.00,,,0.00,0000,Weather View 32 v70,2013-02-08 00:20:00,
2013-02-07 19:25:00,28.3,9.7,30.46,East,90,0.0,4.0,45,0.00,,,0.00,0016,Weather View 32 v70,2013-02-08 00:25:00,
2013-02-07 19:30:00,28.3,10.2,30.46,NE,45,0.0,4.0,46,0.00,,,0.00,0000,Weather View 32 v70,2013-02-08 00:30:00,
2013-02-07 19:35:00,28.3,9.2,30.46,NE,45,0.0,6.0,44,0.00,,,0.00,0000,Weather View 32 v70,2013-02-08 00:35:00,
2013-02-07 19:45:00,28.3,10.7,30.45,NE,45,0.0,6.0,47,0.00,,,0.00,0000,Weather View 32 v70,2013-02-08 00:45:00,
2013-02-07 19:53:00,28.3,9.7,30.45,NNE,23,0.0,6.0,45,0.00,,,0.00,0000,Weather View 32 v70,2013-02-08 00:53:00,
2013-02-07 20:00:00,28.3,9.7,30.46,ENE,68,0.0,6.0,45,0.00,,,0.00,0000,Weather View 32 v70,2013-02-08 01:00:00,
2013-02-07 20:10:00,28.3,10.2,30.46,NNE,23,0.0,6.0,46,0.00,,,0.00,0000,Weather View 32 v70,2013-02-08 01:10:00,
2013-02-07 20:15:00,28.3,11.1,30.46,East,90,0.0,10.0,48,0.00,,,0.00,0000,Weather View 32 v70,2013-02-08 01:15:00,
2013-02-07 20:20:00,28.3,12.0,30.46,ENE,68,0.0,10.0,50,0.00,,,0.00,0008,Weather View 32 v70,2013-02-08 01:20:00,
2013-02-07 20:25:00,28.1,11.8,30.46,East,90,3.0,16.0,50,0.00,,,0.00,0000,Weather View 32 v70,2013-02-08 01:25:00,
2013-02-07 20:30:00,27.9,11.6,30.46,NE,45,0.0,16.0,50,0.00,,,0.00,0008,Weather View 32 v70,2013-02-08 01:30:00,
2013-02-07 20:40:00,27.5,13.0,30.46,ENE,68,0.0,16.0,54,0.00,,,0.00,0000,Weather View 32 v70,2013-02-08 01:40:00,
2013-02-07 20:50:00,27.3,12.8,30.46,East,90,0.0,16.0,54,0.00,,,0.00,0000,Weather View 32 v70,2013-02-08 01:50:00,
2013-02-07 20:55:00,27.1,12.6,30.46,ESE,113,2.0,16.0,54,0.00,,,0.00,0000,Weather View 32 v70,2013-02-08 01:55:00,
2013-02-07 21:00:00,27.0,12.9,30.46,ESE,113,5.0,16.0,55,0.00,,,0.00,0000,Weather View 32 v70,2013-02-08 02:00:00,
2013-02-07 21:05:00,26.6,12.6,30.46,NE,45,2.0,16.0,55,0.00,,,0.00,0000,Weather View 32 v70,2013-02-08 02:05:00,
2013-02-07 21:15:00,26.4,12.4,30.46,ENE,68,0.0,16.0,55,0.00,,,0.00,0000,Weather View 32 v70,2013-02-08 02:15:00,
2013-02-07 21:20:00,26.3,12.3,30.46,NE,45,0.0,16.0,55,0.00,,,0.00,0000,Weather View 32 v70,2013-02-08 02:20:00,
2013-02-07 21:25:00,26.0,12.0,30.46,SE,135,0.0,11.0,55,0.00,,,0.00,0000,Weather View 32 v70,2013-02-08 02:25:00,
2013-02-07 21:30:00,26.0,12.4,30.46,North,0,0.0,11.0,56,0.00,,,0.00,0000,Weather View 32 v70,2013-02-08 02:30:00,
2013-02-07 21:40:00,25.5,11.6,30.46,NE,45,0.0,11.0,55,0.00,,,0.00,0000,Weather View 32 v70,2013-02-08 02:40:00,
2013-02-07 21:50:00,24.9,11.0,30.46,ENE,68,0.0,11.0,55,0.00,,,0.00,0000,Weather View 32 v70,2013-02-08 02:50:00,
2013-02-07 21:55:00,24.9,11.5,30.46,NE,45,0.0,11.0,56,0.00,,,0.00,0000,Weather View 32 v70,2013-02-08 02:55:00,
2013-02-07 22:00:00,24.8,11.3,30.47,NNE,23,0.0,11.0,56,0.00,,,0.00,0008,Weather View 32 v70,2013-02-08 03:00:00,
2013-02-07 22:10:00,24.4,10.9,30.47,ENE,68,1.0,10.0,56,0.00,,,0.00,0000,Weather View 32 v70,2013-02-08 03:10:00,
2013-02-07 22:15:00,24.4,10.9,30.47,North,0,0.0,7.0,56,0.00,,,0.00,0000,Weather View 32 v70,2013-02-08 03:15:00,
2013-02-07 22:20:00,24.3,11.2,30.47,North,0,0.0,7.0,57,0.00,,,0.00,0016,Weather View 32 v70,2013-02-08 03:20:00,
2013-02-07 22:25:00,24.2,11.1,30.47,NNE,23,0.0,6.0,57,0.00,,,0.00,0000,Weather View 32 v70,2013-02-08 03:25:00,
2013-02-07 22:30:00,23.9,11.3,30.47,ENE,68,0.0,6.0,58,0.00,,,0.00,0016,Weather View 32 v70,2013-02-08 03:30:00,
2013-02-07 22:40:00,23.7,11.1,30.46,NNE,23,0.0,5.0,58,0.00,,,0.00,0000,Weather View 32 v70,2013-02-08 03:40:00,
2013-02-07 22:50:00,23.6,11.0,30.46,NNE,23,0.0,5.0,58,0.00,,,0.00,0000,Weather View 32 v70,2013-02-08 03:50:00,
2013-02-07 22:55:00,23.5,10.9,30.46,NNE,23,0.0,5.0,58,0.00,,,0.00,0000,Weather View 32 v70,2013-02-08 03:55:00,
2013-02-07 23:05:00,23.5,11.2,30.46,NNE,23,0.0,5.0,59,0.00,,,0.00,0008,Weather View 32 v70,2013-02-08 04:05:00,
2013-02-07 23:10:00,23.6,11.0,30.46,North,0,0.0,5.0,58,0.00,,,0.00,0000,Weather View 32 v70,2013-02-08 04:10:00,
2013-02-07 23:15:00,23.6,11.4,30.46,NE,45,0.0,2.0,59,0.00,,,0.00,0000,Weather View 32 v70,2013-02-08 04:15:00,
2013-02-07 23:25:00,23.6,11.4,30.46,North,0,0.0,2.0,59,0.00,,,0.00,0000,Weather View 32 v70,2013-02-08 04:25:00,
2013-02-07 23:35:00,23.5,10.9,30.45,NE,45,0.0,0.0,58,0.00,,,0.00,0000,Weather View 32 v70,2013-02-08 04:35:00,
2013-02-07 23:45:00,23.3,11.0,30.44,NE,45,0.0,0.0,59,0.00,,,0.00,0008,Weather View 32 v70,2013-02-08 04:45:00,
2013-02-07 23:55:00,23.3,11.4,30.43,NE,45,0.0,2.0,60,0.00,,,0.00,0000,Weather View 32 v70,2013-02-08 04:55:00,